New River, Tennessee
Current Conditions -  °F | °C
As of 1:14 PM on Friday 31 Oct 2014 (Local Time) from KEKQ Reporting Station
Haze Haze  
Wind Chill: 44°   Ceiling: 1600
Heat Index: 46°   Visibility: 1.5mi
Dew Point: 45°   Wind: 6mph
Humidity: 93%   Direction: 280°W
Pressure: 29.98"   Gusts: NA
Location:  36.4337°N, 84.5593°W
Report Text: KEKQ 311714Z AUTO 28005KT 1 1/2SM BR SCT008 BKN016 OVC030 08/07 A2998 RMK AO2
Loading
Personal Weather Stations






























Interactive Weather Map
Tropical Storm Tracking
New forecast layout! Learn more

10-Day Weather Forecast

Advertisements
Track Severe Weather on mobile